createdAt,value
2019-04-29T00:00:48.300Z,14.27
2019-04-29T00:03:16.741Z,13.30
2019-04-29T00:05:43.727Z,12.70
2019-04-29T00:08:10.819Z,9.77
2019-04-29T00:10:37.766Z,8.77
2019-04-29T00:13:11.170Z,10.17
2019-04-29T00:15:56.774Z,13.90
2019-04-29T00:18:32.778Z,12.57
2019-04-29T00:20:59.970Z,6.43
2019-04-29T00:23:27.094Z,9.90
2019-04-29T00:25:54.072Z,7.80
2019-04-29T00:28:21.167Z,8.13
2019-04-29T00:30:49.920Z,10.27
2019-04-29T00:33:18.066Z,13.33
2019-04-29T00:35:45.021Z,12.93
2019-04-29T00:38:36.420Z,14.40
2019-04-29T00:41:21.864Z,12.77
2019-04-29T00:43:56.963Z,13.20
2019-04-29T00:46:23.953Z,11.63
2019-04-29T00:48:50.941Z,8.87
2019-04-29T00:51:19.114Z,12.60
2019-04-29T00:53:47.310Z,6.90
2019-04-29T00:56:14.354Z,6.87
2019-04-29T00:58:41.309Z,6.40
2019-04-29T01:01:12.009Z,6.27
2019-04-29T01:03:41.140Z,7.67
2019-04-29T01:06:07.955Z,8.83
2019-04-29T01:08:35.028Z,9.90
2019-04-29T01:11:01.959Z,9.93
2019-04-29T01:13:28.944Z,12.40
2019-04-29T01:15:56.082Z,13.37
2019-04-29T01:18:23.115Z,13.73
2019-04-29T01:20:50.104Z,11.73
2019-04-29T01:23:17.030Z,13.63
2019-04-29T01:25:45.879Z,13.70
2019-04-29T01:28:41.491Z,9.60
2019-04-29T01:31:16.362Z,7.53
2019-04-29T01:33:44.029Z,12.77
2019-04-29T01:36:45.829Z,14.17
2019-04-29T01:39:14.715Z,15.60
2019-04-29T01:42:01.376Z,14.83
2019-04-29T01:44:30.059Z,17.43
2019-04-29T01:46:57.012Z,12.77
2019-04-29T01:49:23.987Z,15.33
2019-04-29T01:51:50.970Z,12.30
2019-04-29T01:54:17.978Z,11.70
2019-04-29T01:56:45.023Z,10.03
2019-04-29T01:59:11.997Z,11.37
2019-04-29T02:01:38.944Z,10.87
2019-04-29T02:04:05.887Z,11.63
2019-04-29T02:06:32.967Z,13.80
2019-04-29T02:08:59.903Z,14.50
2019-04-29T02:11:29.866Z,10.60
2019-04-29T02:13:58.669Z,12.67
2019-04-29T02:16:25.588Z,8.97
2019-04-29T02:18:52.531Z,10.53
2019-04-29T02:21:19.520Z,9.00
2019-04-29T02:23:58.830Z,9.20
2019-04-29T02:26:25.834Z,8.80
2019-04-29T02:28:52.921Z,8.00
2019-04-29T02:31:38.923Z,8.90
2019-04-29T02:34:06.196Z,10.97
2019-04-29T02:36:33.228Z,11.07
2019-04-29T02:39:14.724Z,13.20
2019-04-29T02:41:49.427Z,17.67
2019-04-29T02:44:22.511Z,11.77
2019-04-29T02:46:49.475Z,9.63
2019-04-29T02:49:16.441Z,12.40
2019-04-29T02:51:50.147Z,17.53
2019-04-29T02:54:17.233Z,14.07
2019-04-29T02:56:47.077Z,15.63
2019-04-29T02:59:15.348Z,11.27
2019-04-29T03:02:02.551Z,13.33
2019-04-29T03:04:32.933Z,15.67
2019-04-29T03:07:00.410Z,9.97
2019-04-29T03:09:27.397Z,11.37
2019-04-29T03:11:55.644Z,10.70
2019-04-29T03:14:22.615Z,16.03
2019-04-29T03:16:49.580Z,13.93
2019-04-29T03:19:22.256Z,16.77
2019-04-29T03:21:54.603Z,20.30
2019-04-29T03:24:21.536Z,18.73
2019-04-29T03:26:48.519Z,15.93
2019-04-29T03:29:21.289Z,15.53
2019-04-29T03:31:49.028Z,18.33
2019-04-29T03:34:16.093Z,15.73
2019-04-29T03:36:43.025Z,15.50
2019-04-29T03:39:09.959Z,17.63
2019-04-29T03:41:36.937Z,16.43
2019-04-29T03:44:03.868Z,10.93
2019-04-29T03:46:30.920Z,16.93
2019-04-29T03:49:02.297Z,11.83
2019-04-29T03:51:30.380Z,17.30
2019-04-29T03:53:58.470Z,20.97
2019-04-29T03:56:25.444Z,15.13
2019-04-29T03:58:52.370Z,12.27
2019-04-29T04:01:41.495Z,11.67
2019-04-29T04:04:18.375Z,14.30
2019-04-29T04:09:52.602Z,11.70
2019-04-29T04:12:19.777Z,20.13
2019-04-29T04:14:46.744Z,20.60
2019-04-29T04:17:23.148Z,19.40
2019-04-29T04:19:50.224Z,19.40
2019-04-29T04:22:17.245Z,14.77
2019-04-29T04:24:44.325Z,11.43
2019-04-29T04:27:11.272Z,20.47
2019-04-29T04:29:38.227Z,17.57
2019-04-29T04:32:05.386Z,19.03
2019-04-29T04:34:33.358Z,17.40
2019-04-29T04:37:00.608Z,18.47
2019-04-29T04:39:29.667Z,14.27
2019-04-29T04:41:57.707Z,18.33
2019-04-29T04:44:44.354Z,16.90
2019-04-29T04:47:11.630Z,20.53
2019-04-29T04:49:38.620Z,21.13
2019-04-29T04:52:06.070Z,20.47
2019-04-29T04:54:33.054Z,17.87
2019-04-29T04:56:59.999Z,19.03
2019-04-29T04:59:27.001Z,20.27
2019-04-29T05:01:53.939Z,21.97
2019-04-29T05:04:20.892Z,21.87
2019-04-29T05:06:47.888Z,22.60
2019-04-29T05:09:14.829Z,20.53
2019-04-29T05:11:41.768Z,20.67
2019-04-29T05:14:08.734Z,20.40
2019-04-29T05:16:35.676Z,20.53
2019-04-29T05:19:02.622Z,18.53
2019-04-29T05:21:30.797Z,20.53
2019-04-29T05:23:57.771Z,17.57
2019-04-29T05:26:24.814Z,18.03
2019-04-29T05:28:51.759Z,17.73
2019-04-29T05:31:18.869Z,18.13
2019-04-29T05:33:45.803Z,17.77
2019-04-29T05:36:26.363Z,21.77
2019-04-29T05:38:57.529Z,18.10
2019-04-29T05:41:25.619Z,15.13
2019-04-29T05:44:13.699Z,20.90
2019-04-29T05:47:09.452Z,16.93
2019-04-29T05:49:44.482Z,16.37
2019-04-29T05:52:18.718Z,18.53
2019-04-29T05:54:45.791Z,22.47
2019-04-29T05:57:13.382Z,18.67
2019-04-29T05:59:43.412Z,18.13
2019-04-29T06:02:10.950Z,17.93
2019-04-29T06:04:37.944Z,15.07
2019-04-29T06:07:04.892Z,20.47
2019-04-29T06:09:31.872Z,20.57
2019-04-29T06:12:19.680Z,20.43
2019-04-29T06:14:46.647Z,23.43
2019-04-29T06:17:13.592Z,28.10
2019-04-29T06:19:41.055Z,32.33
2019-04-29T06:22:08.230Z,34.60
2019-04-29T06:24:36.978Z,32.63
2019-04-29T06:27:04.158Z,35.43
2019-04-29T06:29:31.128Z,44.53
2019-04-29T06:31:58.075Z,43.13
2019-04-29T06:34:25.063Z,49.13
2019-04-29T06:36:51.999Z,43.17
2019-04-29T06:40:22.795Z,38.03
2019-04-29T06:42:53.385Z,43.77
2019-04-29T06:45:18.595Z,34.73
2019-04-29T06:47:45.619Z,36.20
2019-04-29T06:50:13.072Z,41.93
2019-04-29T06:52:40.027Z,39.53
2019-04-29T06:55:07.142Z,41.43
2019-04-29T06:57:34.115Z,38.33
2019-04-29T07:00:01.209Z,32.97
2019-04-29T07:02:28.204Z,32.37
2019-04-29T07:04:56.324Z,44.13
2019-04-29T07:07:23.273Z,33.57
2019-04-29T07:10:29.698Z,32.10
2019-04-29T07:12:58.441Z,30.80
2019-04-29T07:15:25.398Z,29.10
2019-04-29T07:17:52.358Z,31.00
2019-04-29T07:20:19.329Z,30.70
2019-04-29T07:22:46.266Z,31.40
2019-04-29T07:25:13.351Z,27.97
2019-04-29T07:27:43.566Z,33.17
2019-04-29T07:30:09.948Z,28.73
2019-04-29T07:32:37.017Z,29.03
2019-04-29T07:35:05.840Z,29.27
2019-04-29T07:37:37.444Z,30.73
2019-04-29T07:40:08.093Z,30.77
2019-04-29T07:42:33.895Z,29.73
2019-04-29T07:45:19.213Z,30.27
2019-04-29T07:47:56.375Z,31.20
2019-04-29T07:50:17.320Z,32.60
2019-04-29T07:52:45.623Z,30.63
2019-04-29T07:55:13.603Z,32.43
2019-04-29T07:57:40.635Z,30.40
2019-04-29T08:00:12.724Z,29.63
2019-04-29T08:02:37.744Z,27.67
2019-04-29T08:05:06.418Z,28.13
2019-04-29T08:07:33.835Z,27.17
2019-04-29T08:10:02.343Z,24.77
2019-04-29T08:12:31.192Z,23.63
2019-04-29T08:15:07.552Z,20.60
2019-04-29T08:17:28.431Z,22.57
2019-04-29T08:19:55.397Z,24.87
2019-04-29T08:22:22.848Z,25.87
2019-04-29T08:24:52.200Z,27.60
2019-04-29T08:27:43.845Z,27.50
2019-04-29T08:30:13.244Z,24.73
2019-04-29T08:32:40.165Z,27.50
2019-04-29T08:35:07.279Z,29.70
2019-04-29T08:37:34.280Z,28.53
2019-04-29T08:40:15.472Z,26.93
2019-04-29T08:42:37.246Z,27.80
2019-04-29T08:45:11.918Z,27.97
2019-04-29T08:47:42.557Z,26.03
2019-04-29T08:50:09.744Z,26.27
2019-04-29T08:52:37.104Z,21.13
2019-04-29T08:55:04.450Z,24.97
2019-04-29T08:57:31.806Z,24.00
2019-04-29T09:00:00.204Z,26.17
2019-04-29T09:02:34.983Z,25.47
2019-04-29T09:04:56.047Z,19.00
2019-04-29T09:07:23.252Z,21.83
2019-04-29T09:09:50.368Z,22.90
2019-04-29T09:12:19.329Z,22.43
2019-04-29T09:14:46.209Z,21.57
2019-04-29T09:17:20.315Z,20.37
2019-04-29T09:19:42.135Z,20.60
2019-04-29T09:22:11.299Z,21.67
2019-04-29T09:24:43.673Z,21.30
2019-04-29T09:27:16.475Z,22.43
2019-04-29T09:29:46.322Z,22.67
2019-04-29T09:32:12.253Z,23.67
2019-04-29T09:34:41.031Z,22.20
2019-04-29T09:37:08.010Z,18.83
2019-04-29T09:39:43.370Z,19.23
2019-04-29T09:42:16.114Z,22.77
2019-04-29T09:45:01.608Z,20.53
2019-04-29T09:47:29.445Z,20.23
2019-04-29T09:49:56.418Z,20.17
2019-04-29T09:52:23.452Z,20.47
2019-04-29T09:54:50.552Z,19.20
2019-04-29T09:57:17.482Z,21.30
2019-04-29T09:59:51.951Z,22.40
2019-04-29T10:02:41.230Z,23.10
2019-04-29T10:05:26.561Z,23.20
2019-04-29T10:07:56.499Z,21.10
2019-04-29T10:10:23.451Z,20.03
2019-04-29T10:12:53.636Z,22.03
2019-04-29T10:15:24.503Z,19.67
2019-04-29T10:18:07.901Z,20.43
2019-04-29T10:20:47.778Z,16.60
2019-04-29T10:23:14.746Z,16.73
2019-04-29T10:25:41.740Z,13.70
2019-04-29T10:28:08.946Z,14.00
2019-04-29T10:30:36.153Z,12.77
2019-04-29T10:33:03.323Z,13.37
2019-04-29T10:35:30.473Z,13.40
2019-04-29T10:37:57.412Z,13.43
2019-04-29T10:40:38.607Z,14.10
2019-04-29T10:44:05.933Z,13.97
2019-04-29T10:46:51.131Z,12.30
2019-04-29T10:49:34.833Z,14.37
2019-04-29T10:52:02.904Z,12.10
2019-04-29T10:54:29.915Z,13.40
2019-04-29T10:56:57.088Z,13.80
2019-04-29T10:59:35.626Z,13.80
2019-04-29T11:02:49.776Z,15.77
2019-04-29T11:05:44.549Z,18.33
2019-04-29T11:08:38.233Z,17.23
2019-04-29T11:11:07.086Z,16.33
2019-04-29T11:13:34.029Z,18.07
2019-04-29T11:16:00.985Z,17.80
2019-04-29T11:18:28.229Z,19.17
2019-04-29T11:20:55.535Z,18.40
2019-04-29T11:23:42.654Z,17.87
2019-04-29T11:26:19.943Z,19.10
2019-04-29T11:28:51.236Z,18.60
2019-04-29T11:31:19.134Z,17.07
2019-04-29T11:34:11.575Z,17.87
2019-04-29T11:36:43.941Z,17.50
2019-04-29T11:39:13.380Z,17.23
2019-04-29T11:41:37.809Z,17.63
2019-04-29T11:44:04.957Z,17.33
2019-04-29T11:46:32.878Z,17.07
2019-04-29T11:49:01.842Z,16.10
2019-04-29T11:51:48.630Z,17.93
2019-04-29T11:54:08.191Z,14.73
2019-04-29T11:56:33.922Z,14.60
2019-04-29T11:59:37.362Z,20.83
2019-04-29T12:02:23.852Z,14.73
2019-04-29T12:04:56.943Z,11.60
2019-04-29T12:07:31.686Z,11.47
2019-04-29T12:09:54.937Z,13.90
2019-04-29T12:12:22.723Z,10.67
2019-04-29T12:14:59.300Z,10.47
2019-04-29T12:17:30.040Z,10.23
2019-04-29T12:19:59.573Z,10.10
2019-04-29T12:22:30.736Z,10.03
2019-04-29T12:24:55.462Z,9.57
2019-04-29T12:27:22.645Z,9.70
2019-04-29T12:29:53.893Z,11.97
2019-04-29T12:33:00.902Z,14.10
2019-04-29T12:35:30.233Z,11.00
2019-04-29T12:38:18.203Z,9.47
2019-04-29T12:41:04.870Z,9.27
2019-04-29T12:43:59.330Z,8.87
2019-04-29T12:46:46.573Z,8.73
2019-04-29T12:49:13.935Z,9.20
2019-04-29T12:51:41.220Z,10.80
2019-04-29T12:54:08.189Z,9.13
2019-04-29T12:56:37.273Z,10.33
2019-04-29T12:59:24.851Z,11.03
2019-04-29T13:02:02.277Z,9.87
2019-04-29T13:04:49.907Z,9.93
2019-04-29T13:07:24.607Z,9.80
2019-04-29T13:09:53.662Z,10.03
2019-04-29T13:12:20.606Z,11.57
2019-04-29T13:15:02.994Z,9.90
2019-04-29T13:17:35.540Z,9.97
2019-04-29T13:20:07.419Z,10.37
2019-04-29T13:22:34.376Z,12.10
2019-04-29T13:25:01.322Z,12.33
2019-04-29T13:27:28.426Z,10.77
2019-04-29T13:29:55.359Z,12.27
2019-04-29T13:32:25.346Z,11.90
2019-04-29T13:34:51.975Z,11.13
2019-04-29T13:37:20.027Z,10.63
2019-04-29T13:39:47.213Z,11.27
2019-04-29T13:42:15.802Z,11.77
2019-04-29T13:45:04.665Z,12.83
2019-04-29T13:47:43.816Z,12.87
2019-04-29T13:50:39.629Z,12.30
2019-04-29T13:52:58.110Z,12.90
2019-04-29T13:55:47.307Z,13.07
2019-04-29T13:57:55.924Z,11.37
2019-04-29T14:00:36.577Z,10.07
2019-04-29T14:03:11.512Z,13.13
2019-04-29T14:05:45.476Z,10.23
2019-04-29T14:08:12.528Z,9.67
2019-04-29T14:11:21.794Z,10.90
2019-04-29T14:13:48.489Z,10.43
2019-04-29T14:16:18.983Z,11.30
2019-04-29T14:18:48.287Z,11.20
2019-04-29T14:21:14.645Z,11.00
2019-04-29T14:23:41.600Z,10.20
2019-04-29T14:26:08.614Z,11.10
2019-04-29T14:28:35.561Z,10.60
2019-04-29T14:31:02.502Z,10.33
2019-04-29T14:33:35.163Z,9.73
2019-04-29T14:36:05.670Z,9.13
2019-04-29T14:38:35.833Z,8.57
2019-04-29T14:41:04.050Z,9.43
2019-04-29T14:43:55.105Z,8.20
2019-04-29T14:46:46.893Z,10.57
2019-04-29T14:49:17.131Z,12.83
2019-04-29T14:51:45.892Z,8.93
2019-04-29T14:54:14.046Z,7.53
2019-04-29T14:56:40.991Z,10.37
2019-04-29T14:59:07.967Z,10.53
2019-04-29T15:01:44.672Z,10.23
2019-04-29T15:04:18.224Z,10.50
2019-04-29T15:06:42.899Z,9.27
2019-04-29T15:09:17.005Z,10.67
2019-04-29T15:12:01.039Z,9.57
2019-04-29T15:15:01.747Z,10.30
2019-04-29T15:18:15.323Z,10.87
2019-04-29T15:20:48.492Z,9.13
2019-04-29T15:23:28.020Z,9.20
2019-04-29T15:25:44.444Z,11.00
2019-04-29T15:28:11.446Z,8.27
2019-04-29T15:30:38.743Z,9.17
2019-04-29T15:33:14.941Z,7.33
2019-04-29T15:35:41.897Z,7.07
2019-04-29T15:38:08.829Z,8.13
2019-04-29T15:40:42.768Z,7.70
2019-04-29T15:43:04.748Z,9.67
2019-04-29T15:45:32.306Z,7.67
2019-04-29T15:48:00.748Z,9.13
2019-04-29T15:50:27.715Z,8.00
2019-04-29T15:52:54.703Z,8.60
2019-04-29T15:55:21.739Z,8.20
2019-04-29T15:57:50.358Z,14.33
2019-04-29T16:00:22.508Z,8.17
2019-04-29T16:02:48.226Z,9.13
2019-04-29T16:06:04.616Z,9.77
2019-04-29T16:08:38.400Z,9.20
2019-04-29T16:11:23.440Z,7.73
2019-04-29T16:14:08.369Z,8.87
2019-04-29T16:16:19.258Z,7.13
2019-04-29T16:18:46.309Z,9.77
2019-04-29T16:21:13.248Z,7.20
2019-04-29T16:23:40.395Z,8.23
2019-04-29T16:26:07.480Z,10.77
2019-04-29T16:28:39.512Z,7.47
2019-04-29T16:31:04.950Z,7.90
2019-04-29T16:33:32.146Z,9.80
2019-04-29T16:36:04.861Z,8.23
2019-04-29T16:38:27.929Z,8.20
2019-04-29T16:41:12.545Z,8.47
2019-04-29T16:43:41.688Z,7.53
2019-04-29T16:46:12.912Z,9.50
2019-04-29T16:48:39.953Z,7.13
2019-04-29T16:51:14.063Z,7.17
2019-04-29T16:53:35.905Z,8.67
2019-04-29T16:56:03.048Z,8.83
2019-04-29T16:58:30.007Z,5.53
2019-04-29T17:00:56.963Z,6.80
2019-04-29T17:03:23.954Z,6.80
2019-04-29T17:05:51.019Z,5.00
2019-04-29T17:08:20.295Z,7.97
2019-04-29T17:11:12.093Z,6.03
2019-04-29T17:13:35.264Z,6.57
2019-04-29T17:16:04.136Z,6.33
2019-04-29T17:18:31.192Z,5.13
2019-04-29T17:21:04.523Z,4.57
2019-04-29T17:23:26.973Z,6.83
2019-04-29T17:25:53.983Z,5.80
2019-04-29T17:28:29.186Z,7.10
2019-04-29T17:31:13.775Z,4.70
2019-04-29T17:33:51.295Z,7.40
2019-04-29T17:36:23.600Z,6.47
2019-04-29T17:38:47.845Z,8.40
2019-04-29T17:41:15.004Z,5.47
2019-04-29T17:44:00.400Z,5.33
2019-04-29T17:46:49.759Z,7.13
2019-04-29T17:52:25.829Z,6.57
2019-04-29T17:54:56.310Z,8.07
2019-04-29T18:01:08.113Z,6.27
2019-04-29T18:03:55.858Z,10.03
2019-04-29T18:06:31.643Z,7.10
2019-04-29T18:09:21.086Z,7.60
2019-04-29T18:11:51.814Z,9.90
2019-04-29T18:14:16.921Z,11.40
2019-04-29T18:16:47.825Z,9.27
2019-04-29T18:19:21.715Z,10.27
2019-04-29T18:22:07.375Z,10.67
2019-04-29T18:24:50.112Z,11.33
2019-04-29T18:27:18.679Z,11.07
2019-04-29T18:29:45.877Z,8.67
2019-04-29T18:32:12.940Z,10.63
2019-04-29T18:34:40.025Z,9.37
2019-04-29T18:37:48.145Z,14.50
2019-04-29T18:40:16.067Z,8.93
2019-04-29T18:42:46.851Z,9.30
2019-04-29T18:45:12.570Z,12.60
2019-04-29T18:47:39.616Z,11.70
2019-04-29T18:50:08.408Z,11.17
2019-04-29T18:52:35.407Z,13.60
2019-04-29T18:55:02.603Z,12.47
2019-04-29T18:57:30.917Z,9.90
2019-04-29T18:59:58.086Z,14.40
2019-04-29T19:02:27.106Z,9.83
2019-04-29T19:05:07.334Z,9.50
2019-04-29T19:07:37.210Z,13.23
2019-04-29T19:10:07.673Z,10.47
2019-04-29T19:12:32.794Z,14.47
2019-04-29T19:15:04.518Z,15.50
2019-04-29T19:17:30.784Z,12.63
2019-04-29T19:19:57.600Z,13.57
2019-04-29T19:22:25.897Z,11.43
2019-04-29T19:24:52.918Z,13.37
2019-04-29T19:27:19.904Z,15.10
2019-04-29T19:29:46.869Z,13.00
2019-04-29T19:32:14.020Z,15.10
2019-04-29T19:34:43.460Z,11.80
2019-04-29T19:37:10.378Z,17.57
2019-04-29T19:39:37.840Z,13.60
2019-04-29T19:42:05.657Z,15.53
2019-04-29T19:44:33.605Z,16.07
2019-04-29T19:47:01.669Z,16.67
2019-04-29T19:49:28.658Z,17.17
2019-04-29T19:51:55.726Z,13.37
2019-04-29T19:54:24.482Z,14.67
2019-04-29T19:57:02.929Z,17.97
2019-04-29T19:59:22.733Z,19.40
2019-04-29T20:01:52.137Z,17.37
2019-04-29T20:04:39.281Z,18.43
2019-04-29T20:07:10.081Z,20.63
2019-04-29T20:09:37.839Z,22.70
2019-04-29T20:16:09.526Z,20.73
2019-04-29T20:18:40.437Z,18.83
2019-04-29T20:21:20.851Z,22.27
2019-04-29T20:23:41.996Z,21.63
2019-04-29T20:26:16.060Z,21.03
2019-04-29T20:28:38.178Z,21.80
2019-04-29T20:31:16.254Z,21.60
2019-04-29T20:33:34.397Z,20.37
2019-04-29T20:36:02.392Z,20.03
2019-04-29T20:38:34.132Z,19.40
2019-04-29T20:41:18.107Z,18.87
2019-04-29T20:43:46.257Z,19.60
2019-04-29T20:46:13.698Z,19.13
2019-04-29T20:48:50.421Z,20.50
2019-04-29T20:51:17.035Z,19.47
2019-04-29T20:53:53.050Z,19.83
2019-04-29T20:56:25.267Z,19.67
2019-04-29T20:58:49.433Z,21.53
2019-04-29T21:01:25.779Z,19.20
2019-04-29T21:03:56.001Z,20.73
2019-04-29T21:06:21.734Z,18.67
2019-04-29T21:08:51.189Z,18.17
2019-04-29T21:11:25.789Z,15.63
2019-04-29T21:14:11.453Z,16.13
2019-04-29T21:16:41.484Z,16.40
2019-04-29T21:19:09.114Z,16.47
2019-04-29T21:21:36.816Z,15.93
2019-04-29T21:24:06.454Z,17.17
2019-04-29T21:26:37.905Z,15.00
2019-04-29T21:29:03.284Z,15.47
2019-04-29T21:31:32.377Z,14.50
2019-04-29T21:34:12.380Z,15.73
2019-04-29T21:36:52.961Z,16.03
2019-04-29T21:39:39.565Z,17.63
2019-04-29T21:42:29.749Z,14.07
2019-04-29T21:44:58.686Z,15.37
2019-04-29T21:47:26.821Z,18.33
2019-04-29T21:49:54.623Z,16.77
2019-04-29T21:52:24.023Z,17.80
2019-04-29T21:54:50.710Z,15.70
2019-04-29T21:57:23.685Z,18.67
2019-04-29T21:59:48.661Z,15.40
2019-04-29T22:02:17.541Z,16.60
2019-04-29T22:04:44.965Z,17.07
2019-04-29T22:07:15.514Z,14.07
2019-04-29T22:09:57.724Z,14.83
2019-04-29T22:12:24.704Z,13.87
2019-04-29T22:14:54.195Z,14.03
2019-04-29T22:17:21.640Z,15.50
2019-04-29T22:19:48.797Z,13.83
2019-04-29T22:22:15.936Z,15.47
2019-04-29T22:24:42.987Z,16.03
2019-04-29T22:27:10.057Z,15.63
2019-04-29T22:29:38.966Z,15.43
2019-04-29T22:32:09.252Z,17.37
2019-04-29T22:34:35.461Z,16.03
2019-04-29T22:37:02.601Z,16.70
2019-04-29T22:39:30.139Z,18.03
2019-04-29T22:42:05.561Z,18.40
2019-04-29T22:44:39.464Z,18.37
2019-04-29T22:47:06.403Z,16.87
2019-04-29T22:49:34.263Z,17.70
2019-04-29T22:52:01.220Z,17.80
2019-04-29T22:54:28.160Z,18.03
2019-04-29T22:56:56.715Z,19.43
2019-04-29T22:59:25.406Z,20.17
2019-04-29T23:01:52.707Z,18.43
2019-04-29T23:04:19.674Z,17.23
2019-04-29T23:06:48.108Z,20.07
2019-04-29T23:09:15.308Z,17.70
2019-04-29T23:11:42.262Z,17.10
2019-04-29T23:14:10.151Z,18.37
2019-04-29T23:16:37.384Z,21.80
2019-04-29T23:19:05.272Z,19.97
2019-04-29T23:21:50.987Z,19.00
2019-04-29T23:24:40.662Z,16.57
2019-04-29T23:27:11.624Z,21.20
2019-04-29T23:29:43.067Z,18.13
2019-04-29T23:32:10.506Z,19.17
2019-04-29T23:34:37.735Z,22.17
2019-04-29T23:37:04.871Z,17.73
2019-04-29T23:39:34.796Z,18.93
2019-04-29T23:42:04.734Z,23.40
2019-04-29T23:44:31.447Z,18.30
2019-04-29T23:46:58.609Z,20.73
2019-04-29T23:49:25.747Z,18.83
2019-04-29T23:51:53.062Z,21.83
2019-04-29T23:54:20.182Z,19.60
2019-04-29T23:57:06.143Z,21.83
2019-04-29T23:59:35.581Z,21.10
